sensor_id;sensor_type;location;lat;lon;timestamp;temperature;humidity
46340;DHT22;47273;49.274;8.708;2022-08-01T03:37:44;20.10;79.10
46340;DHT22;47273;49.274;8.708;2022-08-01T03:40:16;20.10;79.20
46340;DHT22;47273;49.274;8.708;2022-08-01T03:42:48;20.00;79.80
46340;DHT22;47273;49.274;8.708;2022-08-01T03:45:25;20.00;80.10
46340;DHT22;47273;49.274;8.708;2022-08-01T03:48:00;20.00;80.20
46340;DHT22;47273;49.274;8.708;2022-08-01T03:50:32;19.90;80.70
46340;DHT22;47273;49.274;8.708;2022-08-01T03:53:00;19.90;80.80
46340;DHT22;47273;49.274;8.708;2022-08-01T03:55:27;19.90;80.40
46340;DHT22;47273;49.274;8.708;2022-08-01T03:57:54;19.90;80.40
46340;DHT22;47273;49.274;8.708;2022-08-01T04:00:20;19.90;80.20
46340;DHT22;47273;49.274;8.708;2022-08-01T04:02:49;19.90;80.60
46340;DHT22;47273;49.274;8.708;2022-08-01T04:05:16;19.90;80.80
46340;DHT22;47273;49.274;8.708;2022-08-01T04:07:46;19.80;80.80
46340;DHT22;47273;49.274;8.708;2022-08-01T04:10:13;19.80;81.20
46340;DHT22;47273;49.274;8.708;2022-08-01T04:12:42;19.80;81.60
46340;DHT22;47273;49.274;8.708;2022-08-01T04:15:08;19.70;81.80
46340;DHT22;47273;49.274;8.708;2022-08-01T04:17:34;19.70;81.70
46340;DHT22;47273;49.274;8.708;2022-08-01T04:19:59;19.70;81.60
46340;DHT22;47273;49.274;8.708;2022-08-01T04:22:25;19.70;81.70
46340;DHT22;47273;49.274;8.708;2022-08-01T04:24:56;19.70;82.00
46340;DHT22;47273;49.274;8.708;2022-08-01T04:27:28;19.60;82.00
46340;DHT22;47273;49.274;8.708;2022-08-01T04:30:02;19.70;83.00
46340;DHT22;47273;49.274;8.708;2022-08-01T04:32:33;19.50;84.20
46340;DHT22;47273;49.274;8.708;2022-08-01T04:35:05;19.50;83.80
46340;DHT22;47273;49.274;8.708;2022-08-01T04:37:32;19.50;84.10
46340;DHT22;47273;49.274;8.708;2022-08-01T04:40:03;19.50;84.60
46340;DHT22;47273;49.274;8.708;2022-08-01T04:42:31;19.50;84.50
46340;DHT22;47273;49.274;8.708;2022-08-01T04:45:00;19.60;84.30
46340;DHT22;47273;49.274;8.708;2022-08-01T04:47:26;19.60;84.40
46340;DHT22;47273;49.274;8.708;2022-08-01T04:49:52;19.60;85.90
46340;DHT22;47273;49.274;8.708;2022-08-01T04:52:19;19.70;85.40
46340;DHT22;47273;49.274;8.708;2022-08-01T04:54:45;19.70;84.80
46340;DHT22;47273;49.274;8.708;2022-08-01T04:57:12;19.70;85.40
46340;DHT22;47273;49.274;8.708;2022-08-01T04:59:42;19.80;85.40
46340;DHT22;47273;49.274;8.708;2022-08-01T05:02:23;19.80;85.00
46340;DHT22;47273;49.274;8.708;2022-08-01T05:04:49;19.80;84.40
46340;DHT22;47273;49.274;8.708;2022-08-01T05:07:15;19.90;85.10
46340;DHT22;47273;49.274;8.708;2022-08-01T05:09:41;19.90;85.90
46340;DHT22;47273;49.274;8.708;2022-08-01T05:12:10;19.90;86.00
46340;DHT22;47273;49.274;8.708;2022-08-01T05:14:45;19.90;86.10
46340;DHT22;47273;49.274;8.708;2022-08-01T05:17:11;19.90;85.10
46340;DHT22;47273;49.274;8.708;2022-08-01T05:19:39;20.00;85.20
46340;DHT22;47273;49.274;8.708;2022-08-01T05:22:09;20.10;85.30
46340;DHT22;47273;49.274;8.708;2022-08-01T05:24:39;20.10;84.50
46340;DHT22;47273;49.274;8.708;2022-08-01T05:27:08;20.10;86.20
46340;DHT22;47273;49.274;8.708;2022-08-01T05:29:43;20.20;85.80
46340;DHT22;47273;49.274;8.708;2022-08-01T05:32:09;20.20;85.30
46340;DHT22;47273;49.274;8.708;2022-08-01T05:34:35;20.20;85.90
46340;DHT22;47273;49.274;8.708;2022-08-01T05:37:01;20.30;85.80
46340;DHT22;47273;49.274;8.708;2022-08-01T05:39:28;20.40;85.80
46340;DHT22;47273;49.274;8.708;2022-08-01T05:41:56;20.60;85.00
46340;DHT22;47273;49.274;8.708;2022-08-01T05:44:22;20.70;83.90
46340;DHT22;47273;49.274;8.708;2022-08-01T05:46:50;20.70;83.40
46340;DHT22;47273;49.274;8.708;2022-08-01T05:49:22;20.80;84.10
46340;DHT22;47273;49.274;8.708;2022-08-01T05:51:50;20.70;84.30
46340;DHT22;47273;49.274;8.708;2022-08-01T05:54:26;20.80;84.80
46340;DHT22;47273;49.274;8.708;2022-08-01T05:56:52;20.90;84.50
46340;DHT22;47273;49.274;8.708;2022-08-01T05:59:25;21.00;84.50
46340;DHT22;47273;49.274;8.708;2022-08-01T06:01:51;21.10;83.80
46340;DHT22;47273;49.274;8.708;2022-08-01T06:04:17;21.20;83.80
46340;DHT22;47273;49.274;8.708;2022-08-01T06:06:46;21.30;83.50
46340;DHT22;47273;49.274;8.708;2022-08-01T06:09:32;21.40;82.90
46340;DHT22;47273;49.274;8.708;2022-08-01T06:12:00;21.50;82.70
46340;DHT22;47273;49.274;8.708;2022-08-01T06:14:26;21.60;82.40
46340;DHT22;47273;49.274;8.708;2022-08-01T06:16:53;21.80;81.80
46340;DHT22;47273;49.274;8.708;2022-08-01T06:19:21;21.80;80.80
46340;DHT22;47273;49.274;8.708;2022-08-01T06:21:49;22.00;80.00
46340;DHT22;47273;49.274;8.708;2022-08-01T06:24:15;22.10;80.60
46340;DHT22;47273;49.274;8.708;2022-08-01T06:26:40;22.20;80.50
46340;DHT22;47273;49.274;8.708;2022-08-01T06:29:20;22.30;80.50
46340;DHT22;47273;49.274;8.708;2022-08-01T06:31:49;22.40;80.40
46340;DHT22;47273;49.274;8.708;2022-08-01T06:34:22;22.50;78.90
46340;DHT22;47273;49.274;8.708;2022-08-01T06:36:51;22.60;79.40
46340;DHT22;47273;49.274;8.708;2022-08-01T06:39:19;22.70;79.00
46340;DHT22;47273;49.274;8.708;2022-08-01T06:41:45;22.80;78.90
46340;DHT22;47273;49.274;8.708;2022-08-01T06:44:15;22.80;79.20
46340;DHT22;47273;49.274;8.708;2022-08-01T06:46:41;23.00;77.70
46340;DHT22;47273;49.274;8.708;2022-08-01T06:49:10;23.00;77.80
46340;DHT22;47273;49.274;8.708;2022-08-01T06:51:35;23.10;76.90
46340;DHT22;47273;49.274;8.708;2022-08-01T06:54:01;23.20;76.60
46340;DHT22;47273;49.274;8.708;2022-08-01T06:56:27;23.30;76.00
46340;DHT22;47273;49.274;8.708;2022-08-01T06:58:52;23.40;75.90
46340;DHT22;47273;49.274;8.708;2022-08-01T07:01:20;23.40;75.70
46340;DHT22;47273;49.274;8.708;2022-08-01T07:03:49;23.30;76.10
46340;DHT22;47273;49.274;8.708;2022-08-01T07:06:14;23.30;75.70
46340;DHT22;47273;49.274;8.708;2022-08-01T07:08:42;23.30;76.20
46340;DHT22;47273;49.274;8.708;2022-08-01T07:11:08;23.40;76.20
46340;DHT22;47273;49.274;8.708;2022-08-01T07:13:34;23.40;75.80
46340;DHT22;47273;49.274;8.708;2022-08-01T07:15:59;23.40;75.90
46340;DHT22;47273;49.274;8.708;2022-08-01T07:18:25;23.40;75.90
46340;DHT22;47273;49.274;8.708;2022-08-01T07:20:50;23.30;75.60
46340;DHT22;47273;49.274;8.708;2022-08-01T07:23:19;23.30;76.10
46340;DHT22;47273;49.274;8.708;2022-08-01T07:25:45;23.50;75.80
46340;DHT22;47273;49.274;8.708;2022-08-01T07:28:17;23.60;75.00
46340;DHT22;47273;49.274;8.708;2022-08-01T07:30:43;23.80;74.50
46340;DHT22;47273;49.274;8.708;2022-08-01T07:33:09;24.00;74.30
46340;DHT22;47273;49.274;8.708;2022-08-01T07:35:36;24.20;74.40
46340;DHT22;47273;49.274;8.708;2022-08-01T07:38:06;24.30;73.40
46340;DHT22;47273;49.274;8.708;2022-08-01T07:40:32;24.40;72.80
46340;DHT22;47273;49.274;8.708;2022-08-01T07:42:58;24.40;72.00
46340;DHT22;47273;49.274;8.708;2022-08-01T07:45:24;24.50;72.10
46340;DHT22;47273;49.274;8.708;2022-08-01T07:47:52;24.50;71.40
46340;DHT22;47273;49.274;8.708;2022-08-01T07:50:20;24.70;71.30
46340;DHT22;47273;49.274;8.708;2022-08-01T07:52:46;24.80;70.90
46340;DHT22;47273;49.274;8.708;2022-08-01T07:55:12;24.90;70.00
46340;DHT22;47273;49.274;8.708;2022-08-01T07:57:40;25.00;70.10
46340;DHT22;47273;49.274;8.708;2022-08-01T08:00:08;25.10;70.60
46340;DHT22;47273;49.274;8.708;2022-08-01T08:02:34;25.30;70.20
46340;DHT22;47273;49.274;8.708;2022-08-01T08:05:10;25.30;69.50
46340;DHT22;47273;49.274;8.708;2022-08-01T08:07:41;25.40;69.30
46340;DHT22;47273;49.274;8.708;2022-08-01T08:10:09;25.50;68.80
46340;DHT22;47273;49.274;8.708;2022-08-01T08:12:37;25.60;68.40
46340;DHT22;47273;49.274;8.708;2022-08-01T08:15:03;25.60;68.30
46340;DHT22;47273;49.274;8.708;2022-08-01T08:17:31;25.70;68.50
46340;DHT22;47273;49.274;8.708;2022-08-01T08:19:57;25.80;68.40
46340;DHT22;47273;49.274;8.708;2022-08-01T08:22:23;25.70;67.20
46340;DHT22;47273;49.274;8.708;2022-08-01T08:24:51;25.80;67.40
46340;DHT22;47273;49.274;8.708;2022-08-01T08:27:16;25.60;67.20
46340;DHT22;47273;49.274;8.708;2022-08-01T08:29:42;25.90;67.60
46340;DHT22;47273;49.274;8.708;2022-08-01T08:32:08;26.20;67.50
46340;DHT22;47273;49.274;8.708;2022-08-01T08:34:37;26.30;67.10
46340;DHT22;47273;49.274;8.708;2022-08-01T08:37:06;26.50;66.20
46340;DHT22;47273;49.274;8.708;2022-08-01T08:39:32;26.50;66.10
46340;DHT22;47273;49.274;8.708;2022-08-01T08:42:06;26.60;66.50
46340;DHT22;47273;49.274;8.708;2022-08-01T08:44:31;26.70;65.90
46340;DHT22;47273;49.274;8.708;2022-08-01T08:47:01;26.80;65.40
46340;DHT22;47273;49.274;8.708;2022-08-01T08:49:31;27.00;65.60
46340;DHT22;47273;49.274;8.708;2022-08-01T08:51:59;26.80;64.40
46340;DHT22;47273;49.274;8.708;2022-08-01T08:54:25;26.60;64.70
46340;DHT22;47273;49.274;8.708;2022-08-01T08:56:55;26.80;65.20
46340;DHT22;47273;49.274;8.708;2022-08-01T08:59:21;27.10;64.90
46340;DHT22;47273;49.274;8.708;2022-08-01T09:01:58;27.20;63.40
46340;DHT22;47273;49.274;8.708;2022-08-01T09:04:25;27.10;63.50
46340;DHT22;47273;49.274;8.708;2022-08-01T09:06:51;26.90;63.10
46340;DHT22;47273;49.274;8.708;2022-08-01T09:09:17;26.80;63.60
46340;DHT22;47273;49.274;8.708;2022-08-01T09:11:43;26.80;64.10
46340;DHT22;47273;49.274;8.708;2022-08-01T09:14:18;26.90;64.30
46340;DHT22;47273;49.274;8.708;2022-08-01T09:17:07;27.20;64.00
46340;DHT22;47273;49.274;8.708;2022-08-01T09:19:47;27.30;63.50
46340;DHT22;47273;49.274;8.708;2022-08-01T09:25:55;27.60;61.30
46340;DHT22;47273;49.274;8.708;2022-08-01T09:28:27;27.60;62.10
46340;DHT22;47273;49.274;8.708;2022-08-01T09:30:53;27.80;62.90
46340;DHT22;47273;49.274;8.708;2022-08-01T09:33:24;28.00;62.00
46340;DHT22;47273;49.274;8.708;2022-08-01T09:40:43;28.20;61.20
46340;DHT22;47273;49.274;8.708;2022-08-01T09:43:36;28.40;61.20
46340;DHT22;47273;49.274;8.708;2022-08-01T09:46:11;28.30;60.00
46340;DHT22;47273;49.274;8.708;2022-08-01T09:48:53;28.40;60.80
46340;DHT22;47273;49.274;8.708;2022-08-01T09:51:36;28.50;60.30
46340;DHT22;47273;49.274;8.708;2022-08-01T09:54:58;28.40;60.50
46340;DHT22;47273;49.274;8.708;2022-08-01T09:57:31;28.30;60.40
46340;DHT22;47273;49.274;8.708;2022-08-01T10:00:19;28.40;60.80
46340;DHT22;47273;49.274;8.708;2022-08-01T10:02:45;28.50;59.60
46340;DHT22;47273;49.274;8.708;2022-08-01T10:05:13;28.50;60.20
46340;DHT22;47273;49.274;8.708;2022-08-01T10:08:15;28.40;58.70
46340;DHT22;47273;49.274;8.708;2022-08-01T10:11:12;28.30;59.90
46340;DHT22;47273;49.274;8.708;2022-08-01T10:13:41;28.30;59.90
46340;DHT22;47273;49.274;8.708;2022-08-01T10:16:09;28.00;60.30
46340;DHT22;47273;49.274;8.708;2022-08-01T10:18:46;28.10;60.60
46340;DHT22;47273;49.274;8.708;2022-08-01T10:21:24;28.10;60.20
46340;DHT22;47273;49.274;8.708;2022-08-01T10:24:15;28.10;60.30
46340;DHT22;47273;49.274;8.708;2022-08-01T10:26:57;28.10;60.40
46340;DHT22;47273;49.274;8.708;2022-08-01T10:29:55;28.10;60.20
46340;DHT22;47273;49.274;8.708;2022-08-01T10:32:28;28.20;60.10
46340;DHT22;47273;49.274;8.708;2022-08-01T10:35:08;28.10;59.60
46340;DHT22;47273;49.274;8.708;2022-08-01T10:37:50;28.10;59.70
46340;DHT22;47273;49.274;8.708;2022-08-01T10:40:21;28.00;60.20
46340;DHT22;47273;49.274;8.708;2022-08-01T10:42:52;28.10;60.10
46340;DHT22;47273;49.274;8.708;2022-08-01T10:45:20;28.00;60.10
46340;DHT22;47273;49.274;8.708;2022-08-01T10:48:04;28.00;60.90
46340;DHT22;47273;49.274;8.708;2022-08-01T10:50:54;27.90;60.60
46340;DHT22;47273;49.274;8.708;2022-08-01T10:53:26;27.80;60.90
46340;DHT22;47273;49.274;8.708;2022-08-01T10:56:03;27.70;60.80
46340;DHT22;47273;49.274;8.708;2022-08-01T10:58:32;27.70;61.10
46340;DHT22;47273;49.274;8.708;2022-08-01T11:03:56;28.10;60.30
46340;DHT22;47273;49.274;8.708;2022-08-01T11:06:25;28.00;60.40
46340;DHT22;47273;49.274;8.708;2022-08-01T11:08:57;28.10;60.50
46340;DHT22;47273;49.274;8.708;2022-08-01T11:11:26;28.20;60.50
46340;DHT22;47273;49.274;8.708;2022-08-01T11:17:37;28.30;60.30
46340;DHT22;47273;49.274;8.708;2022-08-01T11:21:07;28.60;59.60
46340;DHT22;47273;49.274;8.708;2022-08-01T11:23:55;28.70;59.40
46340;DHT22;47273;49.274;8.708;2022-08-01T11:27:19;28.90;60.00
46340;DHT22;47273;49.274;8.708;2022-08-01T11:33:04;29.30;59.10
46340;DHT22;47273;49.274;8.708;2022-08-01T11:35:35;29.60;57.80
46340;DHT22;47273;49.274;8.708;2022-08-01T11:38:23;29.70;55.80
46340;DHT22;47273;49.274;8.708;2022-08-01T11:41:30;30.30;57.50
46340;DHT22;47273;49.274;8.708;2022-08-01T11:49:28;30.30;56.30
46340;DHT22;47273;49.274;8.708;2022-08-01T11:52:26;30.00;56.30
46340;DHT22;47273;49.274;8.708;2022-08-01T11:54:54;30.00;56.90
46340;DHT22;47273;49.274;8.708;2022-08-01T11:57:26;30.10;57.00
46340;DHT22;47273;49.274;8.708;2022-08-01T11:59:58;30.20;57.10
46340;DHT22;47273;49.274;8.708;2022-08-01T12:02:39;30.10;56.00
46340;DHT22;47273;49.274;8.708;2022-08-01T12:05:14;30.40;56.80
46340;DHT22;47273;49.274;8.708;2022-08-01T12:07:53;30.70;55.70
46340;DHT22;47273;49.274;8.708;2022-08-01T12:10:38;30.80;55.80
46340;DHT22;47273;49.274;8.708;2022-08-01T12:13:17;30.60;55.80
46340;DHT22;47273;49.274;8.708;2022-08-01T12:15:46;30.40;55.60
46340;DHT22;47273;49.274;8.708;2022-08-01T12:18:12;30.30;55.90
46340;DHT22;47273;49.274;8.708;2022-08-01T12:20:40;30.10;56.40
46340;DHT22;47273;49.274;8.708;2022-08-01T12:23:08;29.90;56.40
46340;DHT22;47273;49.274;8.708;2022-08-01T12:25:35;29.80;57.30
46340;DHT22;47273;49.274;8.708;2022-08-01T12:28:12;29.90;56.70
46340;DHT22;47273;49.274;8.708;2022-08-01T12:33:34;29.90;56.50
46340;DHT22;47273;49.274;8.708;2022-08-01T12:36:00;30.30;56.20
46340;DHT22;47273;49.274;8.708;2022-08-01T12:38:26;31.30;54.50
46340;DHT22;47273;49.274;8.708;2022-08-01T12:41:15;30.80;52.70
46340;DHT22;47273;49.274;8.708;2022-08-01T12:43:50;30.80;53.90
46340;DHT22;47273;49.274;8.708;2022-08-01T12:46:46;30.80;55.00
46340;DHT22;47273;49.274;8.708;2022-08-01T12:49:17;30.80;54.40
46340;DHT22;47273;49.274;8.708;2022-08-01T12:52:06;31.30;53.90
46340;DHT22;47273;49.274;8.708;2022-08-01T12:55:02;31.80;52.70
46340;DHT22;47273;49.274;8.708;2022-08-01T12:58:08;32.20;52.00
46340;DHT22;47273;49.274;8.708;2022-08-01T13:01:11;32.50;50.20
46340;DHT22;47273;49.274;8.708;2022-08-01T13:03:39;32.50;50.70
46340;DHT22;47273;49.274;8.708;2022-08-01T13:06:18;32.80;51.70
46340;DHT22;47273;49.274;8.708;2022-08-01T13:08:53;32.90;51.70
46340;DHT22;47273;49.274;8.708;2022-08-01T13:14:31;33.70;50.80
46340;DHT22;47273;49.274;8.708;2022-08-01T13:19:56;34.20;50.00
46340;DHT22;47273;49.274;8.708;2022-08-01T13:22:47;34.50;49.20
46340;DHT22;47273;49.274;8.708;2022-08-01T13:25:17;34.00;49.80
46340;DHT22;47273;49.274;8.708;2022-08-01T13:27:47;33.80;49.70
46340;DHT22;47273;49.274;8.708;2022-08-01T13:30:26;33.70;49.90
46340;DHT22;47273;49.274;8.708;2022-08-01T13:33:08;33.40;48.90
46340;DHT22;47273;49.274;8.708;2022-08-01T13:35:58;32.90;49.50
46340;DHT22;47273;49.274;8.708;2022-08-01T13:38:27;32.80;50.20
46340;DHT22;47273;49.274;8.708;2022-08-01T13:41:32;32.60;50.50
46340;DHT22;47273;49.274;8.708;2022-08-01T13:44:01;32.60;50.50
46340;DHT22;47273;49.274;8.708;2022-08-01T13:46:41;32.60;51.30
46340;DHT22;47273;49.274;8.708;2022-08-01T13:52:12;32.00;49.90
46340;DHT22;47273;49.274;8.708;2022-08-01T13:57:35;31.90;50.50
46340;DHT22;47273;49.274;8.708;2022-08-01T14:00:10;31.80;50.60
46340;DHT22;47273;49.274;8.708;2022-08-01T14:03:05;31.50;50.30
46340;DHT22;47273;49.274;8.708;2022-08-01T14:05:46;31.20;51.10
46340;DHT22;47273;49.274;8.708;2022-08-01T14:08:24;31.00;51.40
46340;DHT22;47273;49.274;8.708;2022-08-01T14:10:57;31.00;51.60
46340;DHT22;47273;49.274;8.708;2022-08-01T14:13:25;30.80;51.60
46340;DHT22;47273;49.274;8.708;2022-08-01T14:15:54;30.80;51.90
46340;DHT22;47273;49.274;8.708;2022-08-01T14:18:20;30.80;51.70
46340;DHT22;47273;49.274;8.708;2022-08-01T14:20:46;30.70;51.30
46340;DHT22;47273;49.274;8.708;2022-08-01T14:23:14;30.80;52.50
46340;DHT22;47273;49.274;8.708;2022-08-01T14:25:56;30.80;52.60
46340;DHT22;47273;49.274;8.708;2022-08-01T14:28:25;31.00;52.10
46340;DHT22;47273;49.274;8.708;2022-08-01T14:31:06;31.20;51.70
46340;DHT22;47273;49.274;8.708;2022-08-01T14:33:37;31.40;52.00
46340;DHT22;47273;49.274;8.708;2022-08-01T14:36:24;31.70;51.60
46340;DHT22;47273;49.274;8.708;2022-08-01T14:41:50;31.30;51.40
46340;DHT22;47273;49.274;8.708;2022-08-01T14:44:42;31.10;52.30
46340;DHT22;47273;49.274;8.708;2022-08-01T14:47:08;31.00;52.20
46340;DHT22;47273;49.274;8.708;2022-08-01T14:49:42;30.70;52.40
46340;DHT22;47273;49.274;8.708;2022-08-01T14:52:13;30.50;52.70
46340;DHT22;47273;49.274;8.708;2022-08-01T14:54:45;30.50;53.40
46340;DHT22;47273;49.274;8.708;2022-08-01T14:57:13;30.40;52.00
46340;DHT22;47273;49.274;8.708;2022-08-01T14:59:38;30.30;52.60
46340;DHT22;47273;49.274;8.708;2022-08-01T15:02:04;30.20;52.10
46340;DHT22;47273;49.274;8.708;2022-08-01T15:04:30;30.10;52.00
46340;DHT22;47273;49.274;8.708;2022-08-01T15:06:55;30.00;52.10
46340;DHT22;47273;49.274;8.708;2022-08-01T15:09:27;30.00;52.40
46340;DHT22;47273;49.274;8.708;2022-08-01T15:11:53;30.00;52.90
46340;DHT22;47273;49.274;8.708;2022-08-01T15:14:19;30.00;53.10
46340;DHT22;47273;49.274;8.708;2022-08-01T15:17:41;30.00;53.00
46340;DHT22;47273;49.274;8.708;2022-08-01T15:20:07;30.00;52.70
46340;DHT22;47273;49.274;8.708;2022-08-01T15:22:39;30.00;52.70
46340;DHT22;47273;49.274;8.708;2022-08-01T15:25:10;29.80;52.80
46340;DHT22;47273;49.274;8.708;2022-08-01T15:27:39;29.80;53.30
46340;DHT22;47273;49.274;8.708;2022-08-01T15:30:13;29.90;53.60
46340;DHT22;47273;49.274;8.708;2022-08-01T15:32:39;30.00;52.30
46340;DHT22;47273;49.274;8.708;2022-08-01T15:35:09;30.30;52.90
46340;DHT22;47273;49.274;8.708;2022-08-01T15:37:37;30.60;52.10
46340;DHT22;47273;49.274;8.708;2022-08-01T15:40:03;30.50;52.40
46340;DHT22;47273;49.274;8.708;2022-08-01T15:42:32;30.30;51.60
46340;DHT22;47273;49.274;8.708;2022-08-01T15:45:10;30.00;51.90
46340;DHT22;47273;49.274;8.708;2022-08-01T15:47:43;29.90;52.80
46340;DHT22;47273;49.274;8.708;2022-08-01T15:50:09;29.80;53.40
46340;DHT22;47273;49.274;8.708;2022-08-01T15:52:35;29.70;53.10
46340;DHT22;47273;49.274;8.708;2022-08-01T15:55:24;29.60;52.70
46340;DHT22;47273;49.274;8.708;2022-08-01T15:58:24;29.50;53.60
46340;DHT22;47273;49.274;8.708;2022-08-01T16:01:12;29.40;54.40
46340;DHT22;47273;49.274;8.708;2022-08-01T16:07:36;29.20;53.30
46340;DHT22;47273;49.274;8.708;2022-08-01T16:19:30;28.90;54.00
46340;DHT22;47273;49.274;8.708;2022-08-01T16:21:56;28.80;53.90
46340;DHT22;47273;49.274;8.708;2022-08-01T16:24:25;28.70;54.20
46340;DHT22;47273;49.274;8.708;2022-08-01T16:26:55;28.60;55.00
46340;DHT22;47273;49.274;8.708;2022-08-01T16:29:23;28.60;55.00
46340;DHT22;47273;49.274;8.708;2022-08-01T16:31:57;28.60;55.00
46340;DHT22;47273;49.274;8.708;2022-08-01T16:34:35;28.50;55.20
46340;DHT22;47273;49.274;8.708;2022-08-01T16:37:01;28.50;55.10
46340;DHT22;47273;49.274;8.708;2022-08-01T16:39:27;28.50;55.20
46340;DHT22;47273;49.274;8.708;2022-08-01T16:41:55;28.40;55.10
46340;DHT22;47273;49.274;8.708;2022-08-01T16:44:23;28.40;55.50
46340;DHT22;47273;49.274;8.708;2022-08-01T16:46:54;28.40;55.40
46340;DHT22;47273;49.274;8.708;2022-08-01T16:49:20;28.40;55.80
46340;DHT22;47273;49.274;8.708;2022-08-01T16:51:56;28.40;55.50
46340;DHT22;47273;49.274;8.708;2022-08-01T16:54:22;28.40;55.40
46340;DHT22;47273;49.274;8.708;2022-08-01T16:56:57;28.40;55.80
46340;DHT22;47273;49.274;8.708;2022-08-01T16:59:34;28.40;55.90
46340;DHT22;47273;49.274;8.708;2022-08-01T17:02:00;28.40;55.70
46340;DHT22;47273;49.274;8.708;2022-08-01T17:04:26;28.40;55.80
46340;DHT22;47273;49.274;8.708;2022-08-01T17:06:52;28.30;56.10
46340;DHT22;47273;49.274;8.708;2022-08-01T17:09:18;28.30;56.30
46340;DHT22;47273;49.274;8.708;2022-08-01T17:11:46;28.20;56.20
46340;DHT22;47273;49.274;8.708;2022-08-01T17:14:15;28.20;56.40
46340;DHT22;47273;49.274;8.708;2022-08-01T17:16:44;28.10;56.40
46340;DHT22;47273;49.274;8.708;2022-08-01T17:19:10;28.00;56.60
46340;DHT22;47273;49.274;8.708;2022-08-01T17:21:39;27.90;56.80
46340;DHT22;47273;49.274;8.708;2022-08-01T17:24:08;27.90;56.60
46340;DHT22;47273;49.274;8.708;2022-08-01T17:26:36;27.90;56.80
46340;DHT22;47273;49.274;8.708;2022-08-01T17:29:09;27.90;56.70
46340;DHT22;47273;49.274;8.708;2022-08-01T17:31:43;27.80;56.70
46340;DHT22;47273;49.274;8.708;2022-08-01T17:34:29;27.80;56.90
46340;DHT22;47273;49.274;8.708;2022-08-01T17:36:55;27.70;56.90
46340;DHT22;47273;49.274;8.708;2022-08-01T17:39:20;27.70;57.00
46340;DHT22;47273;49.274;8.708;2022-08-01T17:41:52;27.60;57.10
46340;DHT22;47273;49.274;8.708;2022-08-01T17:44:24;27.50;57.30
46340;DHT22;47273;49.274;8.708;2022-08-01T17:46:54;27.50;57.60
46340;DHT22;47273;49.274;8.708;2022-08-01T17:49:22;27.50;57.70
46340;DHT22;47273;49.274;8.708;2022-08-01T17:51:49;27.40;57.80
46340;DHT22;47273;49.274;8.708;2022-08-01T17:54:20;27.40;57.90
46340;DHT22;47273;49.274;8.708;2022-08-01T17:56:45;27.40;58.00
46340;DHT22;47273;49.274;8.708;2022-08-01T17:59:13;27.30;57.90
46340;DHT22;47273;49.274;8.708;2022-08-01T18:01:39;27.30;57.90
46340;DHT22;47273;49.274;8.708;2022-08-01T18:04:05;27.30;58.20
46340;DHT22;47273;49.274;8.708;2022-08-01T18:06:33;27.20;58.60
46340;DHT22;47273;49.274;8.708;2022-08-01T18:09:01;27.10;58.50
46340;DHT22;47273;49.274;8.708;2022-08-01T18:11:27;27.10;58.50
46340;DHT22;47273;49.274;8.708;2022-08-01T18:13:53;27.00;59.00
46340;DHT22;47273;49.274;8.708;2022-08-01T18:16:19;27.00;59.10
46340;DHT22;47273;49.274;8.708;2022-08-01T18:18:45;26.80;59.30
46340;DHT22;47273;49.274;8.708;2022-08-01T18:21:11;26.80;59.40
46340;DHT22;47273;49.274;8.708;2022-08-01T18:23:40;26.80;59.40
46340;DHT22;47273;49.274;8.708;2022-08-01T18:26:06;26.80;59.70
46340;DHT22;47273;49.274;8.708;2022-08-01T18:28:36;26.70;60.30
46340;DHT22;47273;49.274;8.708;2022-08-01T18:31:07;26.70;60.50
46340;DHT22;47273;49.274;8.708;2022-08-01T18:33:34;26.60;60.40
46340;DHT22;47273;49.274;8.708;2022-08-01T18:36:00;26.60;60.80
46340;DHT22;47273;49.274;8.708;2022-08-01T18:38:26;26.50;60.70
46340;DHT22;47273;49.274;8.708;2022-08-01T18:40:55;26.50;60.30
46340;DHT22;47273;49.274;8.708;2022-08-01T18:43:24;26.50;60.10
46340;DHT22;47273;49.274;8.708;2022-08-01T18:45:52;26.50;60.10
46340;DHT22;47273;49.274;8.708;2022-08-01T18:48:25;26.50;60.00
46340;DHT22;47273;49.274;8.708;2022-08-01T18:50:53;26.50;60.30
46340;DHT22;47273;49.274;8.708;2022-08-01T18:53:19;26.50;60.40
46340;DHT22;47273;49.274;8.708;2022-08-01T18:55:48;26.40;60.40
46340;DHT22;47273;49.274;8.708;2022-08-01T18:58:16;26.40;60.40
46340;DHT22;47273;49.274;8.708;2022-08-01T19:00:42;26.30;60.40
46340;DHT22;47273;49.274;8.708;2022-08-01T19:09:55;26.20;61.80
46340;DHT22;47273;49.274;8.708;2022-08-01T19:12:26;26.10;61.90
46340;DHT22;47273;49.274;8.708;2022-08-01T19:14:54;26.00;62.20
46340;DHT22;47273;49.274;8.708;2022-08-01T19:17:23;26.00;62.20
46340;DHT22;47273;49.274;8.708;2022-08-01T19:19:53;25.90;62.40
46340;DHT22;47273;49.274;8.708;2022-08-01T19:22:20;25.90;62.40
46340;DHT22;47273;49.274;8.708;2022-08-01T19:24:48;25.80;62.70
46340;DHT22;47273;49.274;8.708;2022-08-01T19:27:17;25.70;62.90
46340;DHT22;47273;49.274;8.708;2022-08-01T19:29:57;25.70;63.20
46340;DHT22;47273;49.274;8.708;2022-08-01T19:32:44;25.70;63.40
46340;DHT22;47273;49.274;8.708;2022-08-01T19:35:42;25.60;63.70
46340;DHT22;47273;49.274;8.708;2022-08-01T19:38:11;25.50;63.60
46340;DHT22;47273;49.274;8.708;2022-08-01T19:40:51;25.50;64.40
46340;DHT22;47273;49.274;8.708;2022-08-01T19:43:27;25.40;64.20
46340;DHT22;47273;49.274;8.708;2022-08-01T19:46:01;25.40;64.40
46340;DHT22;47273;49.274;8.708;2022-08-01T19:48:38;25.40;64.40
46340;DHT22;47273;49.274;8.708;2022-08-01T19:51:06;25.30;64.90
46340;DHT22;47273;49.274;8.708;2022-08-01T19:53:37;25.20;64.70
46340;DHT22;47273;49.274;8.708;2022-08-01T19:56:08;25.20;65.00
46340;DHT22;47273;49.274;8.708;2022-08-01T19:58:44;25.20;65.00
46340;DHT22;47273;49.274;8.708;2022-08-01T20:01:15;25.20;64.90
46340;DHT22;47273;49.274;8.708;2022-08-01T20:03:42;25.10;65.10
46340;DHT22;47273;49.274;8.708;2022-08-01T20:06:11;25.00;65.30
46340;DHT22;47273;49.274;8.708;2022-08-01T20:08:37;25.00;65.10
46340;DHT22;47273;49.274;8.708;2022-08-01T20:14:37;25.00;65.60
46340;DHT22;47273;49.274;8.708;2022-08-01T20:17:17;24.90;66.60
46340;DHT22;47273;49.274;8.708;2022-08-01T20:19:43;24.80;65.70
46340;DHT22;47273;49.274;8.708;2022-08-01T20:22:12;24.80;66.00
